createdAt,value
2022-08-28T00:01:51.198Z,27.10
2022-08-28T00:04:24.025Z,27.10
2022-08-28T00:06:57.089Z,27.00
2022-08-28T00:09:30.371Z,27.00
2022-08-28T00:12:03.801Z,26.90
2022-08-28T00:14:38.261Z,27.00
2022-08-28T00:17:13.370Z,26.90
2022-08-28T00:19:47.088Z,26.90
2022-08-28T00:22:20.552Z,26.90
2022-08-28T00:24:55.077Z,26.90
2022-08-28T00:27:45.571Z,26.90
2022-08-28T00:30:18.706Z,26.90
2022-08-28T00:32:54.978Z,26.80
2022-08-28T00:35:28.594Z,26.70
2022-08-28T00:38:02.291Z,26.70
2022-08-28T00:40:36.685Z,26.50
2022-08-28T00:43:10.966Z,26.60
2022-08-28T00:45:44.517Z,26.60
2022-08-28T00:48:20.853Z,26.60
2022-08-28T00:51:10.630Z,26.60
2022-08-28T00:53:44.303Z,26.70
2022-08-28T00:56:20.730Z,26.60
2022-08-28T00:58:58.237Z,26.60
2022-08-28T01:01:32.043Z,26.70
2022-08-28T01:04:08.169Z,26.70
2022-08-28T01:06:52.527Z,26.40
2022-08-28T01:09:30.227Z,26.30
2022-08-28T01:12:09.378Z,26.20
2022-08-28T01:14:47.207Z,26.20
2022-08-28T01:17:21.404Z,26.20
2022-08-28T01:19:59.622Z,26.10
2022-08-28T01:22:41.103Z,26.10
2022-08-28T01:25:20.419Z,26.20
2022-08-28T01:27:54.637Z,26.30
2022-08-28T01:30:30.254Z,26.30
2022-08-28T01:33:03.920Z,26.20
2022-08-28T01:35:41.566Z,26.10
2022-08-28T01:38:20.233Z,26.00
2022-08-28T01:41:02.605Z,25.90
2022-08-28T01:43:36.073Z,25.80
2022-08-28T01:46:11.791Z,25.70
2022-08-28T01:48:47.611Z,25.90
2022-08-28T01:51:24.485Z,26.10
2022-08-28T01:53:58.672Z,26.20
2022-08-28T01:56:33.705Z,26.40
2022-08-28T01:59:09.520Z,26.50
2022-08-28T02:01:44.181Z,26.70
2022-08-28T02:04:17.896Z,26.70
2022-08-28T02:06:50.993Z,26.70
2022-08-28T02:09:24.179Z,26.70
2022-08-28T02:11:59.504Z,26.70
2022-08-28T02:14:35.046Z,26.50
2022-08-28T02:17:08.790Z,26.40
2022-08-28T02:19:42.012Z,26.30
2022-08-28T02:22:15.270Z,26.30
2022-08-28T02:24:48.832Z,26.20
2022-08-28T02:27:24.513Z,25.90
2022-08-28T02:29:59.284Z,25.90
2022-08-28T02:32:32.742Z,25.80
2022-08-28T02:35:11.990Z,25.70
2022-08-28T02:37:47.676Z,25.80
2022-08-28T02:40:23.450Z,25.80
2022-08-28T02:42:59.524Z,25.80
2022-08-28T02:45:33.380Z,26.10
2022-08-28T02:48:16.661Z,26.30
2022-08-28T02:51:06.197Z,26.30
2022-08-28T02:53:44.123Z,26.30
2022-08-28T02:56:18.262Z,26.00
2022-08-28T02:58:54.386Z,25.80
2022-08-28T03:01:30.623Z,25.80
2022-08-28T03:04:04.831Z,25.70
2022-08-28T03:06:39.396Z,25.70
2022-08-28T03:09:12.250Z,25.50
2022-08-28T03:11:46.358Z,25.60
2022-08-28T03:14:21.907Z,25.70
2022-08-28T03:16:56.211Z,25.70
2022-08-28T03:19:30.100Z,25.70
2022-08-28T03:22:03.109Z,25.60
2022-08-28T03:24:34.995Z,25.80
2022-08-28T03:27:08.493Z,25.90
2022-08-28T03:29:44.300Z,26.00
2022-08-28T03:32:17.188Z,26.10
2022-08-28T03:34:51.057Z,25.90
2022-08-28T03:37:24.872Z,25.90
2022-08-28T03:39:58.231Z,26.10
2022-08-28T03:42:33.472Z,26.00
2022-08-28T03:45:09.691Z,26.00
2022-08-28T03:47:43.675Z,26.00
2022-08-28T03:50:17.945Z,25.90
2022-08-28T03:52:53.778Z,25.90
2022-08-28T03:55:27.371Z,26.00
2022-08-28T03:58:00.969Z,26.20
2022-08-28T04:00:35.800Z,26.30
2022-08-28T04:03:09.160Z,26.40
2022-08-28T04:05:43.330Z,26.30
2022-08-28T04:08:26.312Z,26.40
2022-08-28T04:11:00.599Z,26.60
2022-08-28T04:13:35.248Z,26.40
2022-08-28T04:16:14.017Z,26.40
2022-08-28T04:18:48.304Z,26.40
2022-08-28T04:21:24.648Z,26.40
2022-08-28T04:23:58.416Z,26.40
2022-08-28T04:26:37.838Z,26.50
2022-08-28T04:29:13.750Z,26.30
2022-08-28T04:31:49.195Z,26.40
2022-08-28T04:34:29.234Z,26.50
2022-08-28T04:37:06.920Z,26.40
2022-08-28T04:39:40.790Z,26.50
2022-08-28T04:42:14.403Z,26.60
2022-08-28T04:44:48.949Z,26.70
2022-08-28T04:47:25.178Z,26.90
2022-08-28T04:50:01.357Z,26.70
2022-08-28T04:52:41.692Z,26.70
2022-08-28T04:55:16.019Z,26.60
2022-08-28T04:57:58.854Z,26.60
2022-08-28T05:00:33.053Z,26.60
2022-08-28T05:03:09.110Z,26.70
2022-08-28T05:05:49.506Z,26.80
2022-08-28T05:08:29.308Z,26.80
2022-08-28T05:11:13.095Z,26.60
2022-08-28T05:13:47.411Z,26.70
2022-08-28T05:16:21.642Z,26.60
2022-08-28T05:21:44.247Z,26.90
2022-08-28T05:24:19.413Z,27.10
2022-08-28T05:26:58.877Z,27.10
2022-08-28T05:29:33.242Z,27.20
2022-08-28T05:32:07.352Z,27.30
2022-08-28T05:34:43.019Z,27.40
2022-08-28T05:37:19.670Z,27.40
2022-08-28T05:40:02.153Z,27.50
2022-08-28T05:42:40.348Z,27.30
2022-08-28T05:45:16.584Z,27.60
2022-08-28T05:47:51.380Z,27.40
2022-08-28T05:50:27.623Z,27.50
2022-08-28T05:53:02.463Z,27.50
2022-08-28T05:55:37.391Z,27.40
2022-08-28T05:58:24.046Z,27.60
2022-08-28T06:00:59.682Z,27.50
2022-08-28T06:03:34.639Z,27.50
2022-08-28T06:06:10.890Z,27.40
2022-08-28T06:08:58.748Z,27.40
2022-08-28T06:11:34.156Z,27.40
2022-08-28T06:14:12.377Z,27.50
2022-08-28T06:16:52.198Z,27.50
2022-08-28T06:19:27.991Z,27.50
2022-08-28T06:22:07.733Z,27.60
2022-08-28T06:24:44.364Z,27.40
2022-08-28T06:27:19.110Z,27.40
2022-08-28T06:29:53.211Z,27.60
2022-08-28T06:32:27.416Z,27.80
2022-08-28T06:35:03.538Z,27.40
2022-08-28T06:37:40.701Z,27.30
2022-08-28T06:40:15.252Z,27.20
2022-08-28T06:42:49.062Z,27.20
2022-08-28T06:45:23.381Z,27.20
2022-08-28T06:47:57.796Z,27.30
2022-08-28T06:50:31.509Z,27.30
2022-08-28T06:53:09.852Z,27.20
2022-08-28T06:55:45.306Z,27.10
2022-08-28T06:58:31.995Z,27.00
2022-08-28T07:01:13.966Z,27.00
2022-08-28T07:03:48.942Z,26.90
2022-08-28T07:06:24.591Z,27.00
2022-08-28T07:09:01.585Z,26.90
2022-08-28T07:11:37.005Z,26.90
2022-08-28T07:14:11.818Z,27.00
2022-08-28T07:16:46.897Z,26.80
2022-08-28T07:19:21.211Z,26.80
2022-08-28T07:21:55.633Z,26.70
2022-08-28T07:24:33.710Z,26.70
2022-08-28T07:27:08.323Z,26.60
2022-08-28T07:29:43.135Z,26.70
2022-08-28T07:32:18.891Z,26.60
2022-08-28T07:34:53.966Z,26.60
2022-08-28T07:37:27.920Z,26.60
2022-08-28T07:40:04.468Z,26.60
2022-08-28T07:42:55.317Z,26.60
2022-08-28T07:45:30.334Z,26.70
2022-08-28T07:48:07.533Z,26.60
2022-08-28T07:50:45.157Z,26.60
2022-08-28T07:53:19.758Z,26.60
2022-08-28T07:55:57.023Z,26.70
2022-08-28T07:58:31.645Z,26.70
2022-08-28T08:01:06.118Z,26.90
2022-08-28T08:03:40.277Z,26.70
2022-08-28T08:06:14.868Z,26.70
2022-08-28T08:08:48.954Z,26.70
2022-08-28T08:11:24.209Z,26.80
2022-08-28T08:13:59.820Z,26.80
2022-08-28T08:16:35.227Z,26.70
2022-08-28T08:19:15.312Z,26.80
2022-08-28T08:21:53.402Z,26.70
2022-08-28T08:24:31.497Z,26.60
2022-08-28T08:27:08.174Z,26.60
2022-08-28T08:29:42.494Z,26.70
2022-08-28T08:32:16.921Z,26.70
2022-08-28T08:34:51.085Z,26.70
2022-08-28T08:37:26.739Z,26.80
2022-08-28T08:40:00.968Z,26.80
2022-08-28T08:42:39.769Z,26.70
2022-08-28T08:45:19.470Z,26.60
2022-08-28T08:47:55.707Z,26.60
2022-08-28T08:50:31.791Z,26.60
2022-08-28T08:53:28.566Z,26.60
2022-08-28T08:56:07.026Z,26.50
2022-08-28T08:58:44.335Z,26.50
2022-08-28T09:01:24.268Z,26.50
2022-08-28T09:04:04.311Z,26.60
2022-08-28T09:06:44.970Z,26.60
2022-08-28T09:09:30.418Z,26.50
2022-08-28T09:12:06.852Z,26.40
2022-08-28T09:14:53.744Z,26.40
2022-08-28T09:17:31.691Z,26.40
2022-08-28T09:20:07.040Z,26.40
2022-08-28T09:22:41.651Z,26.40
2022-08-28T09:25:37.731Z,26.30
2022-08-28T09:28:13.112Z,26.40
2022-08-28T09:31:00.657Z,26.30
2022-08-28T09:33:41.793Z,26.20
2022-08-28T09:36:32.620Z,26.30
2022-08-28T09:39:17.825Z,26.20
2022-08-28T09:42:15.679Z,26.30
2022-08-28T09:44:55.485Z,26.20
2022-08-28T09:47:49.934Z,26.10
2022-08-28T09:50:36.303Z,26.10
2022-08-28T09:53:23.373Z,26.20
2022-08-28T09:56:03.421Z,26.20
2022-08-28T09:58:40.314Z,26.20
2022-08-28T10:01:33.323Z,26.10
2022-08-28T10:04:31.072Z,26.10
2022-08-28T10:07:11.837Z,26.10
2022-08-28T10:09:53.745Z,26.20
2022-08-28T10:12:46.622Z,26.20
2022-08-28T10:15:26.621Z,26.20
2022-08-28T10:18:16.197Z,26.20
2022-08-28T10:21:00.156Z,26.30
2022-08-28T10:23:43.628Z,26.30
2022-08-28T10:26:38.173Z,26.20
2022-08-28T10:29:49.401Z,26.00
2022-08-28T10:32:56.812Z,26.00
2022-08-28T10:35:39.220Z,26.00
2022-08-28T10:38:18.221Z,25.80
2022-08-28T10:41:00.162Z,25.80
2022-08-28T10:43:46.030Z,25.80
2022-08-28T10:46:27.360Z,25.70
2022-08-28T10:49:05.407Z,25.60
2022-08-28T10:51:45.810Z,25.60
2022-08-28T10:54:27.698Z,25.60
2022-08-28T10:57:06.567Z,25.60
2022-08-28T10:59:42.125Z,25.60
2022-08-28T11:02:17.598Z,25.60
2022-08-28T11:04:55.348Z,25.50
2022-08-28T11:07:36.742Z,25.50
2022-08-28T11:10:28.264Z,25.40
2022-08-28T11:13:02.772Z,25.60
2022-08-28T11:15:56.741Z,25.50
2022-08-28T11:19:03.330Z,25.50
2022-08-28T11:21:45.872Z,25.40
2022-08-28T11:24:38.077Z,25.40
2022-08-28T11:27:25.788Z,25.30
2022-08-28T11:30:37.754Z,25.30
2022-08-28T11:33:33.888Z,25.40
2022-08-28T11:36:08.307Z,25.50
2022-08-28T11:39:16.140Z,25.60
2022-08-28T11:42:34.857Z,25.60
2022-08-28T11:45:10.630Z,25.60
2022-08-28T11:47:58.065Z,25.60
2022-08-28T11:50:37.226Z,25.50
2022-08-28T11:53:38.820Z,25.40
2022-08-28T11:56:39.803Z,25.50
2022-08-28T11:59:38.580Z,25.50
2022-08-28T12:02:55.445Z,25.50
2022-08-28T12:05:52.747Z,25.50
2022-08-28T12:09:15.848Z,25.50
2022-08-28T12:12:01.692Z,25.50
2022-08-28T12:15:13.327Z,25.40
2022-08-28T12:17:54.274Z,25.50
2022-08-28T12:20:48.501Z,25.30
2022-08-28T12:23:47.451Z,25.30
2022-08-28T12:26:29.097Z,25.30
2022-08-28T12:29:03.908Z,25.30
2022-08-28T12:32:15.544Z,25.30
2022-08-28T12:34:59.197Z,25.30
2022-08-28T12:37:52.551Z,25.20
2022-08-28T12:40:54.770Z,25.30
2022-08-28T12:43:40.873Z,25.20
2022-08-28T12:46:24.859Z,25.30
2022-08-28T12:49:01.703Z,25.30
2022-08-28T12:51:38.011Z,25.30
2022-08-28T12:54:14.684Z,25.30
2022-08-28T12:56:50.468Z,25.30
2022-08-28T12:59:38.643Z,25.30
2022-08-28T13:02:23.243Z,25.20
2022-08-28T13:05:01.398Z,25.20
2022-08-28T13:07:39.483Z,25.10
2022-08-28T13:10:26.155Z,25.00
2022-08-28T13:13:05.930Z,24.90
2022-08-28T13:15:58.416Z,24.80
2022-08-28T13:18:46.461Z,24.60
2022-08-28T13:22:00.219Z,24.40
2022-08-28T13:24:49.313Z,24.40
2022-08-28T13:27:27.815Z,24.50
2022-08-28T13:30:08.493Z,24.60
2022-08-28T13:32:44.168Z,24.40
2022-08-28T13:35:38.387Z,24.30
2022-08-28T13:38:14.432Z,24.20
2022-08-28T13:41:00.093Z,23.90
2022-08-28T13:43:45.474Z,23.70
2022-08-28T13:46:22.634Z,23.80
2022-08-28T13:48:57.533Z,23.70
2022-08-28T13:51:31.776Z,23.80
2022-08-28T13:54:08.350Z,23.70
2022-08-28T13:56:43.176Z,23.80
2022-08-28T14:02:24.716Z,23.60
2022-08-28T14:05:01.231Z,23.50
2022-08-28T14:07:35.651Z,23.30
2022-08-28T14:10:09.918Z,23.30
2022-08-28T14:12:44.755Z,23.40
2022-08-28T14:15:20.483Z,23.20
2022-08-28T14:17:57.915Z,23.20
2022-08-28T14:20:31.972Z,23.20
2022-08-28T14:23:06.263Z,23.10
2022-08-28T14:25:47.991Z,23.10
2022-08-28T14:28:24.079Z,23.00
2022-08-28T14:30:58.800Z,22.80
2022-08-28T14:33:36.960Z,22.90
2022-08-28T14:36:22.657Z,22.90
2022-08-28T14:38:57.713Z,22.80
2022-08-28T14:41:32.851Z,22.80
2022-08-28T14:44:08.040Z,22.70
2022-08-28T14:46:43.680Z,22.70
2022-08-28T14:49:24.415Z,22.80
2022-08-28T14:52:00.249Z,22.70
2022-08-28T14:54:35.921Z,22.80
2022-08-28T14:57:13.869Z,22.70
2022-08-28T14:59:48.457Z,22.70
2022-08-28T15:02:23.228Z,22.70
2022-08-28T15:05:00.220Z,22.70
2022-08-28T15:07:54.412Z,22.70
2022-08-28T15:10:29.618Z,22.70
2022-08-28T15:13:17.534Z,22.60
2022-08-28T15:15:52.542Z,22.60
2022-08-28T15:18:28.021Z,22.60
2022-08-28T15:21:05.116Z,22.60
2022-08-28T15:23:39.609Z,22.60
2022-08-28T15:26:17.728Z,22.70
2022-08-28T15:28:52.543Z,22.80
2022-08-28T15:31:26.848Z,22.70
2022-08-28T15:34:02.104Z,22.70
2022-08-28T15:36:38.698Z,22.70
2022-08-28T15:39:29.543Z,22.60
2022-08-28T15:42:04.904Z,22.50
2022-08-28T15:44:39.995Z,22.60
2022-08-28T15:47:16.688Z,22.60
2022-08-28T15:49:57.166Z,22.60
2022-08-28T15:52:36.006Z,22.60
2022-08-28T15:55:11.522Z,22.70
2022-08-28T15:57:45.530Z,22.70
2022-08-28T16:00:21.392Z,22.70
2022-08-28T16:03:01.262Z,22.70
2022-08-28T16:05:41.017Z,22.60
2022-08-28T16:08:18.605Z,22.50
2022-08-28T16:10:54.578Z,22.50
2022-08-28T16:13:32.701Z,22.50
2022-08-28T16:16:08.000Z,22.50
2022-08-28T16:18:42.463Z,22.60
2022-08-28T16:21:16.842Z,22.80
2022-08-28T16:23:53.622Z,22.60
2022-08-28T16:26:28.323Z,22.60
2022-08-28T16:29:04.830Z,22.50
2022-08-28T16:31:39.151Z,22.50
2022-08-28T16:34:14.399Z,22.60
2022-08-28T16:36:49.769Z,22.60
2022-08-28T16:39:25.899Z,22.70
2022-08-28T16:42:00.075Z,22.70
2022-08-28T16:44:34.388Z,22.70
2022-08-28T16:47:08.760Z,22.80
2022-08-28T16:49:42.715Z,22.90
2022-08-28T16:52:17.462Z,22.80
2022-08-28T16:54:54.211Z,22.70
2022-08-28T16:57:28.150Z,22.70
2022-08-28T17:00:04.121Z,22.70
2022-08-28T17:02:38.327Z,22.60
2022-08-28T17:05:13.082Z,22.60
2022-08-28T17:07:47.769Z,22.50
2022-08-28T17:10:25.839Z,22.70
2022-08-28T17:13:00.626Z,22.60
2022-08-28T17:15:34.177Z,22.70
2022-08-28T17:18:07.954Z,22.60
2022-08-28T17:21:11.726Z,22.40
2022-08-28T17:23:45.968Z,22.20
2022-08-28T17:26:21.473Z,22.20
2022-08-28T17:28:58.656Z,22.20
2022-08-28T17:31:32.731Z,22.00
2022-08-28T17:34:06.950Z,22.00
2022-08-28T17:36:42.162Z,21.90
2022-08-28T17:39:20.904Z,21.70
2022-08-28T17:41:56.361Z,21.50
2022-08-28T17:44:29.888Z,21.30
2022-08-28T17:47:05.039Z,21.20
2022-08-28T17:49:39.375Z,21.30
2022-08-28T17:52:13.017Z,21.10
2022-08-28T17:54:47.327Z,21.10
2022-08-28T17:57:23.219Z,21.10
2022-08-28T17:59:57.753Z,21.10
2022-08-28T18:02:32.361Z,21.20
2022-08-28T18:05:06.295Z,21.10
2022-08-28T18:07:39.931Z,21.10
2022-08-28T18:10:14.190Z,21.10
2022-08-28T18:12:49.950Z,21.20
2022-08-28T18:15:23.681Z,21.20
2022-08-28T18:17:57.155Z,21.20
2022-08-28T18:20:30.127Z,21.30
2022-08-28T18:25:52.636Z,21.40
2022-08-28T18:28:29.705Z,21.40
2022-08-28T18:31:03.989Z,21.40
2022-08-28T18:33:38.281Z,21.40
2022-08-28T18:36:13.027Z,21.40
2022-08-28T18:38:48.224Z,21.40
2022-08-28T18:41:41.564Z,21.50
2022-08-28T18:44:21.204Z,21.30
2022-08-28T18:46:57.178Z,21.30
2022-08-28T18:49:31.587Z,21.30
2022-08-28T18:52:05.322Z,21.40
2022-08-28T18:54:39.068Z,21.30
2022-08-28T18:57:14.628Z,21.40
2022-08-28T18:59:50.221Z,21.30
2022-08-28T19:02:23.820Z,21.20
2022-08-28T19:04:57.719Z,21.20
2022-08-28T19:07:31.572Z,21.20
2022-08-28T19:10:22.681Z,21.20
2022-08-28T19:13:02.548Z,21.20
2022-08-28T19:15:38.665Z,21.20
2022-08-28T19:18:13.073Z,21.20
2022-08-28T19:20:46.354Z,21.10
2022-08-28T19:23:20.099Z,21.10
2022-08-28T19:25:53.806Z,21.10
2022-08-28T19:28:27.276Z,21.20
2022-08-28T19:31:02.253Z,21.20
2022-08-28T19:33:38.137Z,21.30
2022-08-28T19:36:12.684Z,21.30
2022-08-28T19:38:46.337Z,21.20
2022-08-28T19:41:19.719Z,21.30
2022-08-28T19:43:53.609Z,21.10
2022-08-28T19:46:29.063Z,21.10
2022-08-28T19:49:04.330Z,21.10
2022-08-28T19:51:39.287Z,21.00
2022-08-28T19:54:17.316Z,21.00
2022-08-28T19:56:50.848Z,21.10
2022-08-28T19:59:27.133Z,21.10
2022-08-28T20:02:02.660Z,21.20
2022-08-28T20:04:37.526Z,21.20
2022-08-28T20:07:11.264Z,21.10
2022-08-28T20:09:45.301Z,21.10
2022-08-28T20:12:18.757Z,21.30
2022-08-28T20:14:52.923Z,21.20
2022-08-28T20:17:28.813Z,21.20
2022-08-28T20:20:03.528Z,21.20
2022-08-28T20:22:37.053Z,21.20
2022-08-28T20:25:12.774Z,21.20
2022-08-28T20:27:49.750Z,21.20
2022-08-28T20:30:24.122Z,21.30
2022-08-28T20:33:00.509Z,21.20
2022-08-28T20:35:34.525Z,21.40
2022-08-28T20:38:07.524Z,21.60
2022-08-28T20:40:41.358Z,21.60
2022-08-28T20:43:15.087Z,21.60
2022-08-28T20:45:48.716Z,21.70
2022-08-28T20:48:27.979Z,21.60
2022-08-28T20:51:02.154Z,21.60
2022-08-28T20:53:37.881Z,21.70
2022-08-28T20:56:14.306Z,21.80
2022-08-28T20:58:47.915Z,21.60
2022-08-28T21:01:21.768Z,21.60
2022-08-28T21:03:57.246Z,21.40
2022-08-28T21:06:32.554Z,21.40
2022-08-28T21:09:06.615Z,21.50
2022-08-28T21:11:40.714Z,21.50
2022-08-28T21:14:14.760Z,21.60
2022-08-28T21:16:49.632Z,21.80
2022-08-28T21:19:25.544Z,22.00
2022-08-28T21:21:59.533Z,21.90
2022-08-28T21:24:33.498Z,21.70
2022-08-28T21:27:09.584Z,21.60
2022-08-28T21:29:43.611Z,21.70
2022-08-28T21:32:18.527Z,21.70
2022-08-28T21:34:54.573Z,21.60
2022-08-28T21:37:28.532Z,21.30
2022-08-28T21:40:24.357Z,21.20
2022-08-28T21:42:58.343Z,20.80
2022-08-28T21:45:32.312Z,20.70
2022-08-28T21:48:06.471Z,20.90
2022-08-28T21:50:46.285Z,21.00
2022-08-28T21:53:21.124Z,21.30
2022-08-28T21:55:56.608Z,21.20
2022-08-28T21:58:30.568Z,21.20
2022-08-28T22:01:05.074Z,20.90
2022-08-28T22:03:39.103Z,20.90
2022-08-28T22:06:18.167Z,21.00
2022-08-28T22:08:52.863Z,20.90
2022-08-28T22:11:28.227Z,20.80
2022-08-28T22:16:55.192Z,21.10
2022-08-28T22:19:29.069Z,21.10
2022-08-28T22:22:20.992Z,21.10
2022-08-28T22:24:55.051Z,21.10
2022-08-28T22:27:28.657Z,21.10
2022-08-28T22:30:02.499Z,21.10
2022-08-28T22:32:36.290Z,21.20
2022-08-28T22:35:12.055Z,21.30
2022-08-28T22:37:47.443Z,21.30
2022-08-28T22:40:21.703Z,21.30
2022-08-28T22:42:55.628Z,21.40
2022-08-28T22:45:29.788Z,21.20
2022-08-28T22:48:21.161Z,21.40
2022-08-28T22:50:54.590Z,21.50
2022-08-28T22:53:30.745Z,21.50
2022-08-28T22:56:04.125Z,21.30
2022-08-28T22:58:38.176Z,21.50
2022-08-28T23:01:15.506Z,21.60
2022-08-28T23:03:53.351Z,21.60
2022-08-28T23:06:26.775Z,21.70
2022-08-28T23:09:02.022Z,21.80
2022-08-28T23:11:35.233Z,21.70
2022-08-28T23:14:11.698Z,21.70
2022-08-28T23:16:46.484Z,21.60
2022-08-28T23:19:20.358Z,21.70
2022-08-28T23:21:56.230Z,21.70
2022-08-28T23:24:31.214Z,21.60
2022-08-28T23:27:25.505Z,21.60
2022-08-28T23:29:58.522Z,21.50
2022-08-28T23:32:34.081Z,21.40
2022-08-28T23:35:08.184Z,21.50
2022-08-28T23:40:46.719Z,21.60
2022-08-28T23:43:20.164Z,21.60
2022-08-28T23:45:55.310Z,21.60
2022-08-28T23:48:29.184Z,21.50
2022-08-28T23:51:02.891Z,21.40
2022-08-28T23:53:36.735Z,21.30
2022-08-28T23:56:12.881Z,21.40
2022-08-28T23:58:46.863Z,21.30
